Hana, Hawaii
Current Conditions -  °F | °C
As of 7:54 PM on Monday 20 Oct 2014 (Local Time) from PHOG Reporting Station
Clear Clear  
Wind Chill: 78°   Ceiling: Unl
Heat Index: 80°   Visibility: 10mi
Dew Point: 70°   Wind: 13mph
Humidity: 76%   Direction: 60°ENE
Pressure: 29.98"   Gusts: NA
Location:  20.75°N, 155.98°W
Report Text: PHOG 210554Z 06011KT 10SM CLR 26/21 A2998 RMK AO2 SLP158 T02560211 10322 20256 53017
Loading
Personal Weather Stations






























Interactive Weather Map
Tropical Storm Tracking
New forecast layout! Learn more

10-Day Weather Forecast

Advertisements
Track Severe Weather on mobile